sensor_id;sensor_type;location;lat;lon;timestamp;temperature;humidity
22161;DHT22;49035;48.812;11.762;2023-03-01T00:01:05;0.30;99.90
22161;DHT22;49035;48.812;11.762;2023-03-01T00:03:31;0.30;99.90
22161;DHT22;49035;48.812;11.762;2023-03-01T00:05:57;0.30;99.90
22161;DHT22;49035;48.812;11.762;2023-03-01T00:08:23;0.30;99.90
22161;DHT22;49035;48.812;11.762;2023-03-01T00:10:49;0.30;99.90
22161;DHT22;49035;48.812;11.762;2023-03-01T00:13:24;0.20;99.90
22161;DHT22;49035;48.812;11.762;2023-03-01T00:15:50;0.20;99.90
22161;DHT22;49035;48.812;11.762;2023-03-01T00:18:15;0.10;99.90
22161;DHT22;49035;48.812;11.762;2023-03-01T00:20:41;-0.20;99.90
22161;DHT22;49035;48.812;11.762;2023-03-01T00:23:06;-0.20;99.90
22161;DHT22;49035;48.812;11.762;2023-03-01T00:25:32;-0.20;99.90
22161;DHT22;49035;48.812;11.762;2023-03-01T00:27:57;-0.30;99.90
22161;DHT22;49035;48.812;11.762;2023-03-01T00:30:23;-0.30;99.90
22161;DHT22;49035;48.812;11.762;2023-03-01T00:32:48;-0.30;99.90
22161;DHT22;49035;48.812;11.762;2023-03-01T00:35:14;-0.40;99.90
22161;DHT22;49035;48.812;11.762;2023-03-01T00:37:39;-0.50;99.90
22161;DHT22;49035;48.812;11.762;2023-03-01T00:40:07;-0.40;99.90
22161;DHT22;49035;48.812;11.762;2023-03-01T00:42:33;-0.50;99.90
22161;DHT22;49035;48.812;11.762;2023-03-01T00:44:58;-0.50;99.90
22161;DHT22;49035;48.812;11.762;2023-03-01T00:47:24;-0.60;99.90
22161;DHT22;49035;48.812;11.762;2023-03-01T00:49:49;-0.70;99.90
22161;DHT22;49035;48.812;11.762;2023-03-01T00:52:15;-0.70;99.90
22161;DHT22;49035;48.812;11.762;2023-03-01T00:54:40;-0.70;99.90
22161;DHT22;49035;48.812;11.762;2023-03-01T00:57:06;-0.60;99.90
22161;DHT22;49035;48.812;11.762;2023-03-01T00:59:32;-0.50;99.90
22161;DHT22;49035;48.812;11.762;2023-03-01T01:01:57;-0.50;99.90
22161;DHT22;49035;48.812;11.762;2023-03-01T01:04:24;-0.50;99.90
22161;DHT22;49035;48.812;11.762;2023-03-01T01:06:49;-0.40;99.90
22161;DHT22;49035;48.812;11.762;2023-03-01T01:09:17;-0.50;99.90
22161;DHT22;49035;48.812;11.762;2023-03-01T01:11:45;-0.70;99.90
22161;DHT22;49035;48.812;11.762;2023-03-01T01:14:11;-0.60;99.90
22161;DHT22;49035;48.812;11.762;2023-03-01T01:16:37;-0.50;99.90
22161;DHT22;49035;48.812;11.762;2023-03-01T01:19:03;-0.40;99.90
22161;DHT22;49035;48.812;11.762;2023-03-01T01:21:29;-0.20;99.90
22161;DHT22;49035;48.812;11.762;2023-03-01T01:23:55;-0.20;99.90
22161;DHT22;49035;48.812;11.762;2023-03-01T01:26:24;-0.10;99.90
22161;DHT22;49035;48.812;11.762;2023-03-01T01:28:50;-0.20;99.90
22161;DHT22;49035;48.812;11.762;2023-03-01T01:31:17;-0.10;99.90
22161;DHT22;49035;48.812;11.762;2023-03-01T01:33:43;-0.10;99.90
22161;DHT22;49035;48.812;11.762;2023-03-01T01:36:09;-0.10;99.90
22161;DHT22;49035;48.812;11.762;2023-03-01T01:38:36;0.00;99.90
22161;DHT22;49035;48.812;11.762;2023-03-01T01:41:03;0.00;99.90
22161;DHT22;49035;48.812;11.762;2023-03-01T01:43:35;0.00;99.90
22161;DHT22;49035;48.812;11.762;2023-03-01T01:46:04;0.00;99.90
22161;DHT22;49035;48.812;11.762;2023-03-01T01:48:41;0.00;99.90
22161;DHT22;49035;48.812;11.762;2023-03-01T01:51:15;0.10;99.90
22161;DHT22;49035;48.812;11.762;2023-03-01T01:53:44;0.10;99.90
22161;DHT22;49035;48.812;11.762;2023-03-01T01:56:12;0.10;99.90
22161;DHT22;49035;48.812;11.762;2023-03-01T01:58:40;0.10;99.90
22161;DHT22;49035;48.812;11.762;2023-03-01T02:01:07;0.10;99.90
22161;DHT22;49035;48.812;11.762;2023-03-01T02:03:35;0.10;99.90
22161;DHT22;49035;48.812;11.762;2023-03-01T02:08:39;0.10;99.90
22161;DHT22;49035;48.812;11.762;2023-03-01T02:11:07;0.00;99.90
22161;DHT22;49035;48.812;11.762;2023-03-01T02:13:34;0.10;99.90
22161;DHT22;49035;48.812;11.762;2023-03-01T02:16:03;0.10;99.90
22161;DHT22;49035;48.812;11.762;2023-03-01T02:18:30;-0.10;99.90
22161;DHT22;49035;48.812;11.762;2023-03-01T02:23:30;-0.20;99.90
22161;DHT22;49035;48.812;11.762;2023-03-01T02:28:37;-0.60;99.90
22161;DHT22;49035;48.812;11.762;2023-03-01T02:31:05;-0.80;99.90
22161;DHT22;49035;48.812;11.762;2023-03-01T02:33:51;-1.10;99.90
22161;DHT22;49035;48.812;11.762;2023-03-01T02:36:23;-1.20;99.90
22161;DHT22;49035;48.812;11.762;2023-03-01T02:38:51;-1.30;99.90
22161;DHT22;49035;48.812;11.762;2023-03-01T02:41:19;-1.50;99.90
22161;DHT22;49035;48.812;11.762;2023-03-01T02:43:46;-1.60;99.90
22161;DHT22;49035;48.812;11.762;2023-03-01T02:46:21;-1.60;99.90
22161;DHT22;49035;48.812;11.762;2023-03-01T02:48:58;-1.60;99.90
22161;DHT22;49035;48.812;11.762;2023-03-01T02:56:41;-1.80;99.90
22161;DHT22;49035;48.812;11.762;2023-03-01T02:59:09;-1.80;99.90
22161;DHT22;49035;48.812;11.762;2023-03-01T03:01:35;-1.80;99.90
22161;DHT22;49035;48.812;11.762;2023-03-01T03:04:11;-1.80;99.90
22161;DHT22;49035;48.812;11.762;2023-03-01T03:06:42;-1.70;99.90
22161;DHT22;49035;48.812;11.762;2023-03-01T03:09:08;-1.60;99.90
22161;DHT22;49035;48.812;11.762;2023-03-01T03:11:33;-1.70;99.90
22161;DHT22;49035;48.812;11.762;2023-03-01T03:13:59;-1.80;99.90
22161;DHT22;49035;48.812;11.762;2023-03-01T03:16:25;-1.90;99.90
22161;DHT22;49035;48.812;11.762;2023-03-01T03:18:50;-1.90;99.90
22161;DHT22;49035;48.812;11.762;2023-03-01T03:21:16;-2.00;99.90
22161;DHT22;49035;48.812;11.762;2023-03-01T03:23:42;-2.00;99.90
22161;DHT22;49035;48.812;11.762;2023-03-01T03:26:07;-2.20;99.90
22161;DHT22;49035;48.812;11.762;2023-03-01T03:28:34;-2.30;99.90
22161;DHT22;49035;48.812;11.762;2023-03-01T03:31:01;-2.50;99.90
22161;DHT22;49035;48.812;11.762;2023-03-01T03:33:32;-2.50;99.90
22161;DHT22;49035;48.812;11.762;2023-03-01T03:35:58;-2.60;99.90
22161;DHT22;49035;48.812;11.762;2023-03-01T03:38:24;-2.80;99.90
22161;DHT22;49035;48.812;11.762;2023-03-01T03:40:52;-2.80;99.90
22161;DHT22;49035;48.812;11.762;2023-03-01T03:43:26;-2.60;99.90
22161;DHT22;49035;48.812;11.762;2023-03-01T03:45:52;-2.60;99.90
22161;DHT22;49035;48.812;11.762;2023-03-01T03:48:18;-2.60;99.90
22161;DHT22;49035;48.812;11.762;2023-03-01T03:50:51;-2.50;99.90
22161;DHT22;49035;48.812;11.762;2023-03-01T03:53:18;-2.50;99.90
22161;DHT22;49035;48.812;11.762;2023-03-01T03:55:44;-2.50;99.90
22161;DHT22;49035;48.812;11.762;2023-03-01T03:58:10;-2.50;99.90
22161;DHT22;49035;48.812;11.762;2023-03-01T04:00:38;-2.50;99.90
22161;DHT22;49035;48.812;11.762;2023-03-01T04:03:04;-2.50;99.90
22161;DHT22;49035;48.812;11.762;2023-03-01T04:05:30;-2.50;99.90
22161;DHT22;49035;48.812;11.762;2023-03-01T04:07:56;-2.40;99.90
22161;DHT22;49035;48.812;11.762;2023-03-01T04:10:33;-2.40;99.90
22161;DHT22;49035;48.812;11.762;2023-03-01T04:12:59;-2.60;99.90
22161;DHT22;49035;48.812;11.762;2023-03-01T04:15:26;-2.60;99.90
22161;DHT22;49035;48.812;11.762;2023-03-01T04:17:53;-2.60;99.90
22161;DHT22;49035;48.812;11.762;2023-03-01T04:20:25;-2.80;99.90
22161;DHT22;49035;48.812;11.762;2023-03-01T04:22:53;-2.80;99.90
22161;DHT22;49035;48.812;11.762;2023-03-01T04:25:23;-3.00;99.90
22161;DHT22;49035;48.812;11.762;2023-03-01T04:27:48;-3.00;99.90
22161;DHT22;49035;48.812;11.762;2023-03-01T04:30:15;-3.10;99.90
22161;DHT22;49035;48.812;11.762;2023-03-01T04:32:40;-3.20;99.90
22161;DHT22;49035;48.812;11.762;2023-03-01T04:35:06;-3.30;99.90
22161;DHT22;49035;48.812;11.762;2023-03-01T04:37:32;-3.50;99.90
22161;DHT22;49035;48.812;11.762;2023-03-01T04:39:58;-3.50;99.90
22161;DHT22;49035;48.812;11.762;2023-03-01T04:42:23;-3.60;99.90
22161;DHT22;49035;48.812;11.762;2023-03-01T04:44:49;-3.60;99.90
22161;DHT22;49035;48.812;11.762;2023-03-01T04:47:17;-3.70;99.90
22161;DHT22;49035;48.812;11.762;2023-03-01T04:49:42;-3.70;99.90
22161;DHT22;49035;48.812;11.762;2023-03-01T04:52:08;-3.90;99.90
22161;DHT22;49035;48.812;11.762;2023-03-01T04:54:35;-4.00;99.90
22161;DHT22;49035;48.812;11.762;2023-03-01T04:57:02;-4.10;99.90
22161;DHT22;49035;48.812;11.762;2023-03-01T04:59:28;-4.20;99.90
22161;DHT22;49035;48.812;11.762;2023-03-01T05:01:55;-4.30;99.90
22161;DHT22;49035;48.812;11.762;2023-03-01T05:04:22;-4.50;99.90
22161;DHT22;49035;48.812;11.762;2023-03-01T05:06:47;-4.60;99.90
22161;DHT22;49035;48.812;11.762;2023-03-01T05:09:13;-4.70;99.90
22161;DHT22;49035;48.812;11.762;2023-03-01T05:11:39;-4.60;99.90
22161;DHT22;49035;48.812;11.762;2023-03-01T05:14:05;-4.60;99.90
22161;DHT22;49035;48.812;11.762;2023-03-01T05:16:31;-4.70;99.90
22161;DHT22;49035;48.812;11.762;2023-03-01T05:18:58;-4.70;99.90
22161;DHT22;49035;48.812;11.762;2023-03-01T05:21:24;-4.80;99.90
22161;DHT22;49035;48.812;11.762;2023-03-01T05:23:50;-5.00;99.90
22161;DHT22;49035;48.812;11.762;2023-03-01T05:26:17;-5.10;99.90
22161;DHT22;49035;48.812;11.762;2023-03-01T05:28:44;-5.00;99.90
22161;DHT22;49035;48.812;11.762;2023-03-01T05:31:09;-5.10;99.90
22161;DHT22;49035;48.812;11.762;2023-03-01T05:33:39;-5.10;99.90
22161;DHT22;49035;48.812;11.762;2023-03-01T05:36:07;-5.10;99.90
22161;DHT22;49035;48.812;11.762;2023-03-01T05:38:33;-5.20;99.90
22161;DHT22;49035;48.812;11.762;2023-03-01T05:40:59;-5.20;99.90
22161;DHT22;49035;48.812;11.762;2023-03-01T05:43:24;-5.20;99.90
22161;DHT22;49035;48.812;11.762;2023-03-01T05:45:50;-5.20;99.90
22161;DHT22;49035;48.812;11.762;2023-03-01T05:48:16;-5.20;99.90
22161;DHT22;49035;48.812;11.762;2023-03-01T05:50:45;-5.10;99.90
22161;DHT22;49035;48.812;11.762;2023-03-01T05:53:18;-5.10;99.90
22161;DHT22;49035;48.812;11.762;2023-03-01T05:55:45;-5.10;99.90
22161;DHT22;49035;48.812;11.762;2023-03-01T05:58:15;-5.10;99.90
22161;DHT22;49035;48.812;11.762;2023-03-01T06:00:43;-5.10;99.90
22161;DHT22;49035;48.812;11.762;2023-03-01T06:03:11;-5.00;99.90
22161;DHT22;49035;48.812;11.762;2023-03-01T06:05:37;-4.90;99.90
22161;DHT22;49035;48.812;11.762;2023-03-01T06:08:04;-4.80;99.90
22161;DHT22;49035;48.812;11.762;2023-03-01T06:10:29;-4.80;99.90
22161;DHT22;49035;48.812;11.762;2023-03-01T06:12:55;-4.70;99.90
22161;DHT22;49035;48.812;11.762;2023-03-01T06:15:21;-4.70;99.90
22161;DHT22;49035;48.812;11.762;2023-03-01T06:17:47;-4.80;99.90
22161;DHT22;49035;48.812;11.762;2023-03-01T06:20:16;-4.80;99.90
22161;DHT22;49035;48.812;11.762;2023-03-01T06:22:44;-4.80;99.90
22161;DHT22;49035;48.812;11.762;2023-03-01T06:25:11;-4.80;99.90
22161;DHT22;49035;48.812;11.762;2023-03-01T06:27:38;-4.80;99.90
22161;DHT22;49035;48.812;11.762;2023-03-01T06:30:04;-4.80;99.90
22161;DHT22;49035;48.812;11.762;2023-03-01T06:32:30;-4.70;99.90
22161;DHT22;49035;48.812;11.762;2023-03-01T06:34:56;-4.60;99.90
22161;DHT22;49035;48.812;11.762;2023-03-01T06:37:24;-4.50;99.90
22161;DHT22;49035;48.812;11.762;2023-03-01T06:39:49;-4.50;99.90
22161;DHT22;49035;48.812;11.762;2023-03-01T06:42:15;-4.30;99.90
22161;DHT22;49035;48.812;11.762;2023-03-01T06:44:40;-4.20;99.90
22161;DHT22;49035;48.812;11.762;2023-03-01T06:47:06;-4.10;99.90
22161;DHT22;49035;48.812;11.762;2023-03-01T06:49:32;-4.00;99.90
22161;DHT22;49035;48.812;11.762;2023-03-01T06:51:57;-3.90;99.90
22161;DHT22;49035;48.812;11.762;2023-03-01T06:54:23;-3.70;99.90
22161;DHT22;49035;48.812;11.762;2023-03-01T06:56:49;-3.50;99.90
22161;DHT22;49035;48.812;11.762;2023-03-01T06:59:16;-3.30;99.90
22161;DHT22;49035;48.812;11.762;2023-03-01T07:01:42;-3.00;99.90
22161;DHT22;49035;48.812;11.762;2023-03-01T07:04:07;-2.70;99.90
22161;DHT22;49035;48.812;11.762;2023-03-01T07:06:33;-2.50;99.90
22161;DHT22;49035;48.812;11.762;2023-03-01T07:08:58;-2.20;99.90
22161;DHT22;49035;48.812;11.762;2023-03-01T07:11:24;-2.00;99.90
22161;DHT22;49035;48.812;11.762;2023-03-01T07:13:50;-1.90;99.90
22161;DHT22;49035;48.812;11.762;2023-03-01T07:16:15;-1.70;99.90
22161;DHT22;49035;48.812;11.762;2023-03-01T07:18:41;-1.50;99.90
22161;DHT22;49035;48.812;11.762;2023-03-01T07:21:08;-1.40;99.90
22161;DHT22;49035;48.812;11.762;2023-03-01T07:23:34;-1.20;99.90
22161;DHT22;49035;48.812;11.762;2023-03-01T07:25:59;-1.00;99.90
22161;DHT22;49035;48.812;11.762;2023-03-01T07:28:26;-0.90;99.90
22161;DHT22;49035;48.812;11.762;2023-03-01T07:30:52;-0.80;99.90
22161;DHT22;49035;48.812;11.762;2023-03-01T07:33:17;-0.70;99.90
22161;DHT22;49035;48.812;11.762;2023-03-01T07:35:43;-0.50;99.90
22161;DHT22;49035;48.812;11.762;2023-03-01T07:38:09;-0.40;99.90
22161;DHT22;49035;48.812;11.762;2023-03-01T07:40:35;-0.30;99.90
22161;DHT22;49035;48.812;11.762;2023-03-01T07:43:01;-0.20;99.90
22161;DHT22;49035;48.812;11.762;2023-03-01T07:45:29;-0.20;99.90
22161;DHT22;49035;48.812;11.762;2023-03-01T07:47:55;-0.10;99.90
22161;DHT22;49035;48.812;11.762;2023-03-01T07:50:22;0.00;99.90
22161;DHT22;49035;48.812;11.762;2023-03-01T07:52:49;0.10;99.90
22161;DHT22;49035;48.812;11.762;2023-03-01T07:55:15;0.20;99.90
22161;DHT22;49035;48.812;11.762;2023-03-01T07:57:41;0.20;99.90
22161;DHT22;49035;48.812;11.762;2023-03-01T08:00:09;0.40;99.90
22161;DHT22;49035;48.812;11.762;2023-03-01T08:02:35;0.50;99.90
22161;DHT22;49035;48.812;11.762;2023-03-01T08:05:01;0.60;99.90
22161;DHT22;49035;48.812;11.762;2023-03-01T08:07:26;0.80;99.90
22161;DHT22;49035;48.812;11.762;2023-03-01T08:09:52;0.80;99.90
22161;DHT22;49035;48.812;11.762;2023-03-01T08:12:17;0.90;99.90
22161;DHT22;49035;48.812;11.762;2023-03-01T08:14:43;1.00;99.90
22161;DHT22;49035;48.812;11.762;2023-03-01T08:17:09;1.10;99.90
22161;DHT22;49035;48.812;11.762;2023-03-01T08:19:34;1.10;99.90
22161;DHT22;49035;48.812;11.762;2023-03-01T08:22:01;1.20;99.90
22161;DHT22;49035;48.812;11.762;2023-03-01T08:24:27;1.20;99.90
22161;DHT22;49035;48.812;11.762;2023-03-01T08:26:53;1.30;99.90
22161;DHT22;49035;48.812;11.762;2023-03-01T08:29:18;1.40;99.90
22161;DHT22;49035;48.812;11.762;2023-03-01T08:31:44;1.60;99.90
22161;DHT22;49035;48.812;11.762;2023-03-01T08:34:14;1.70;99.90
22161;DHT22;49035;48.812;11.762;2023-03-01T08:36:42;1.80;99.90
22161;DHT22;49035;48.812;11.762;2023-03-01T08:39:09;1.90;99.90
22161;DHT22;49035;48.812;11.762;2023-03-01T08:41:35;1.90;99.90
22161;DHT22;49035;48.812;11.762;2023-03-01T08:44:02;2.00;99.90
22161;DHT22;49035;48.812;11.762;2023-03-01T08:46:29;2.10;99.90
22161;DHT22;49035;48.812;11.762;2023-03-01T08:48:55;2.10;99.90
22161;DHT22;49035;48.812;11.762;2023-03-01T08:51:22;2.20;99.90
22161;DHT22;49035;48.812;11.762;2023-03-01T08:53:48;2.30;99.90
22161;DHT22;49035;48.812;11.762;2023-03-01T08:56:15;2.40;99.70
22161;DHT22;49035;48.812;11.762;2023-03-01T08:58:44;2.40;98.80
22161;DHT22;49035;48.812;11.762;2023-03-01T09:01:12;2.60;99.70
22161;DHT22;49035;48.812;11.762;2023-03-01T09:03:39;2.70;99.90
22161;DHT22;49035;48.812;11.762;2023-03-01T09:06:06;2.80;99.50
22161;DHT22;49035;48.812;11.762;2023-03-01T09:08:35;2.80;98.30
22161;DHT22;49035;48.812;11.762;2023-03-01T09:11:02;2.90;97.70
22161;DHT22;49035;48.812;11.762;2023-03-01T09:13:28;3.00;97.20
22161;DHT22;49035;48.812;11.762;2023-03-01T09:15:57;3.10;97.60
22161;DHT22;49035;48.812;11.762;2023-03-01T09:18:22;3.20;96.70
22161;DHT22;49035;48.812;11.762;2023-03-01T09:20:48;3.20;95.90
22161;DHT22;49035;48.812;11.762;2023-03-01T09:23:13;3.20;94.50
22161;DHT22;49035;48.812;11.762;2023-03-01T09:25:39;3.40;95.50
22161;DHT22;49035;48.812;11.762;2023-03-01T09:28:04;3.60;95.80
22161;DHT22;49035;48.812;11.762;2023-03-01T09:30:30;3.80;94.00
22161;DHT22;49035;48.812;11.762;2023-03-01T09:32:58;3.70;91.30
22161;DHT22;49035;48.812;11.762;2023-03-01T09:35:24;3.70;92.20
22161;DHT22;49035;48.812;11.762;2023-03-01T09:37:50;3.80;92.60
22161;DHT22;49035;48.812;11.762;2023-03-01T09:40:20;3.90;91.70
22161;DHT22;49035;48.812;11.762;2023-03-01T09:46:00;4.00;92.40
22161;DHT22;49035;48.812;11.762;2023-03-01T09:48:32;3.90;92.00
22161;DHT22;49035;48.812;11.762;2023-03-01T09:51:01;3.90;92.10
22161;DHT22;49035;48.812;11.762;2023-03-01T09:53:33;3.90;91.50
22161;DHT22;49035;48.812;11.762;2023-03-01T10:01:54;4.30;90.20
22161;DHT22;49035;48.812;11.762;2023-03-01T10:07:17;4.50;90.00
22161;DHT22;49035;48.812;11.762;2023-03-01T10:09:46;4.70;89.20
22161;DHT22;49035;48.812;11.762;2023-03-01T10:12:22;4.90;89.20
22161;DHT22;49035;48.812;11.762;2023-03-01T10:18:01;4.70;88.40
22161;DHT22;49035;48.812;11.762;2023-03-01T10:23:09;5.10;86.50
22161;DHT22;49035;48.812;11.762;2023-03-01T10:30:46;5.00;87.20
22161;DHT22;49035;48.812;11.762;2023-03-01T10:33:35;5.20;84.40
22161;DHT22;49035;48.812;11.762;2023-03-01T10:36:02;5.10;85.60
22161;DHT22;49035;48.812;11.762;2023-03-01T10:38:31;5.20;84.20
22161;DHT22;49035;48.812;11.762;2023-03-01T10:41:05;5.00;83.90
22161;DHT22;49035;48.812;11.762;2023-03-01T10:46:35;5.50;84.30
22161;DHT22;49035;48.812;11.762;2023-03-01T10:49:18;5.60;84.40
22161;DHT22;49035;48.812;11.762;2023-03-01T10:51:47;5.90;83.40
22161;DHT22;49035;48.812;11.762;2023-03-01T10:54:31;5.80;81.40
22161;DHT22;49035;48.812;11.762;2023-03-01T10:57:00;5.80;82.80
22161;DHT22;49035;48.812;11.762;2023-03-01T10:59:37;5.80;83.40
22161;DHT22;49035;48.812;11.762;2023-03-01T11:04:34;5.60;81.70
22161;DHT22;49035;48.812;11.762;2023-03-01T11:07:01;5.70;83.70
22161;DHT22;49035;48.812;11.762;2023-03-01T11:09:31;5.80;84.20
22161;DHT22;49035;48.812;11.762;2023-03-01T11:12:03;6.10;83.00
22161;DHT22;49035;48.812;11.762;2023-03-01T11:14:36;6.20;81.50
22161;DHT22;49035;48.812;11.762;2023-03-01T11:17:34;6.00;80.80
22161;DHT22;49035;48.812;11.762;2023-03-01T11:22:54;6.30;82.80
22161;DHT22;49035;48.812;11.762;2023-03-01T11:26:10;6.30;81.80
22161;DHT22;49035;48.812;11.762;2023-03-01T11:28:15;6.20;83.00
22161;DHT22;49035;48.812;11.762;2023-03-01T11:36:36;6.70;79.50
22161;DHT22;49035;48.812;11.762;2023-03-01T11:39:26;6.50;81.10
22161;DHT22;49035;48.812;11.762;2023-03-01T11:42:04;6.20;81.30
22161;DHT22;49035;48.812;11.762;2023-03-01T11:44:33;6.40;83.30
22161;DHT22;49035;48.812;11.762;2023-03-01T11:53:01;6.70;80.30
22161;DHT22;49035;48.812;11.762;2023-03-01T11:55:44;6.80;82.10
22161;DHT22;49035;48.812;11.762;2023-03-01T11:58:19;7.00;83.10
22161;DHT22;49035;48.812;11.762;2023-03-01T12:01:13;6.90;81.70
22161;DHT22;49035;48.812;11.762;2023-03-01T12:06:56;7.00;81.40
22161;DHT22;49035;48.812;11.762;2023-03-01T12:12:43;7.30;80.00
22161;DHT22;49035;48.812;11.762;2023-03-01T12:29:58;7.30;80.90
22161;DHT22;49035;48.812;11.762;2023-03-01T12:32:40;7.30;77.40
22161;DHT22;49035;48.812;11.762;2023-03-01T12:35:49;7.40;79.80
22161;DHT22;49035;48.812;11.762;2023-03-01T12:44:11;7.60;78.20
22161;DHT22;49035;48.812;11.762;2023-03-01T12:49:20;7.80;78.70
22161;DHT22;49035;48.812;11.762;2023-03-01T12:51:59;7.80;77.80
22161;DHT22;49035;48.812;11.762;2023-03-01T12:54:31;7.90;80.00
22161;DHT22;49035;48.812;11.762;2023-03-01T12:57:06;7.90;76.50
22161;DHT22;49035;48.812;11.762;2023-03-01T12:59:42;7.80;79.60
22161;DHT22;49035;48.812;11.762;2023-03-01T13:02:41;8.10;78.90
22161;DHT22;49035;48.812;11.762;2023-03-01T13:05:18;8.10;81.20
22161;DHT22;49035;48.812;11.762;2023-03-01T13:10:51;8.30;78.70
22161;DHT22;49035;48.812;11.762;2023-03-01T13:13:22;8.20;77.60
22161;DHT22;49035;48.812;11.762;2023-03-01T13:15:48;8.20;76.60
22161;DHT22;49035;48.812;11.762;2023-03-01T13:23:12;7.90;76.30
22161;DHT22;49035;48.812;11.762;2023-03-01T13:28:40;8.20;77.70
22161;DHT22;49035;48.812;11.762;2023-03-01T13:31:55;8.10;76.00
22161;DHT22;49035;48.812;11.762;2023-03-01T13:33:57;8.00;76.40
22161;DHT22;49035;48.812;11.762;2023-03-01T13:38:56;8.20;77.80
22161;DHT22;49035;48.812;11.762;2023-03-01T13:46:51;8.40;77.10
22161;DHT22;49035;48.812;11.762;2023-03-01T13:49:57;8.20;75.80
22161;DHT22;49035;48.812;11.762;2023-03-01T13:55:46;8.10;77.00
22161;DHT22;49035;48.812;11.762;2023-03-01T14:01:06;8.30;79.90
22161;DHT22;49035;48.812;11.762;2023-03-01T14:03:41;8.30;76.20
22161;DHT22;49035;48.812;11.762;2023-03-01T14:06:15;8.20;76.90
22161;DHT22;49035;48.812;11.762;2023-03-01T14:08:44;8.10;77.10
22161;DHT22;49035;48.812;11.762;2023-03-01T14:21:31;8.10;82.20
22161;DHT22;49035;48.812;11.762;2023-03-01T14:23:58;8.20;80.70
22161;DHT22;49035;48.812;11.762;2023-03-01T14:26:24;8.30;81.00
22161;DHT22;49035;48.812;11.762;2023-03-01T14:28:50;8.30;82.40
22161;DHT22;49035;48.812;11.762;2023-03-01T14:31:42;8.40;81.30
22161;DHT22;49035;48.812;11.762;2023-03-01T14:34:21;8.40;81.10
22161;DHT22;49035;48.812;11.762;2023-03-01T14:36:47;8.30;79.70
22161;DHT22;49035;48.812;11.762;2023-03-01T14:39:22;8.20;79.40
22161;DHT22;49035;48.812;11.762;2023-03-01T14:41:49;8.30;81.70
22161;DHT22;49035;48.812;11.762;2023-03-01T14:44:21;8.30;80.00
22161;DHT22;49035;48.812;11.762;2023-03-01T14:46:54;8.20;81.10
22161;DHT22;49035;48.812;11.762;2023-03-01T14:49:23;8.10;81.60
22161;DHT22;49035;48.812;11.762;2023-03-01T14:51:59;8.10;81.30
22161;DHT22;49035;48.812;11.762;2023-03-01T14:54:49;8.00;83.50
22161;DHT22;49035;48.812;11.762;2023-03-01T14:57:23;8.00;82.80
22161;DHT22;49035;48.812;11.762;2023-03-01T14:59:52;8.10;82.70
22161;DHT22;49035;48.812;11.762;2023-03-01T15:02:22;8.00;81.80
22161;DHT22;49035;48.812;11.762;2023-03-01T15:04:55;7.90;82.50
22161;DHT22;49035;48.812;11.762;2023-03-01T15:07:30;8.00;83.30
22161;DHT22;49035;48.812;11.762;2023-03-01T15:09:57;7.90;82.10
22161;DHT22;49035;48.812;11.762;2023-03-01T15:14:52;7.90;83.40
22161;DHT22;49035;48.812;11.762;2023-03-01T15:19:58;7.80;84.50
22161;DHT22;49035;48.812;11.762;2023-03-01T15:22:26;7.70;83.80
22161;DHT22;49035;48.812;11.762;2023-03-01T15:24:52;7.60;83.90
22161;DHT22;49035;48.812;11.762;2023-03-01T15:27:21;7.60;85.10
22161;DHT22;49035;48.812;11.762;2023-03-01T15:29:50;7.60;85.10
22161;DHT22;49035;48.812;11.762;2023-03-01T15:32:34;7.60;84.70
22161;DHT22;49035;48.812;11.762;2023-03-01T15:37:59;7.50;85.70
22161;DHT22;49035;48.812;11.762;2023-03-01T15:40:29;7.40;86.60
22161;DHT22;49035;48.812;11.762;2023-03-01T15:42:58;7.50;86.30
22161;DHT22;49035;48.812;11.762;2023-03-01T15:45:26;7.40;86.00
22161;DHT22;49035;48.812;11.762;2023-03-01T15:47:55;7.40;86.60
22161;DHT22;49035;48.812;11.762;2023-03-01T15:52:56;7.30;86.80
22161;DHT22;49035;48.812;11.762;2023-03-01T15:55:25;7.20;87.10
22161;DHT22;49035;48.812;11.762;2023-03-01T15:58:08;7.10;87.70
22161;DHT22;49035;48.812;11.762;2023-03-01T16:00:35;7.00;88.00
22161;DHT22;49035;48.812;11.762;2023-03-01T16:03:00;6.90;88.80
22161;DHT22;49035;48.812;11.762;2023-03-01T16:05:31;6.70;89.00
22161;DHT22;49035;48.812;11.762;2023-03-01T16:07:57;6.70;89.00
22161;DHT22;49035;48.812;11.762;2023-03-01T16:10:24;6.70;89.30
22161;DHT22;49035;48.812;11.762;2023-03-01T16:12:50;6.60;90.10
22161;DHT22;49035;48.812;11.762;2023-03-01T16:15:32;6.50;90.10
22161;DHT22;49035;48.812;11.762;2023-03-01T16:17:58;6.40;90.20
22161;DHT22;49035;48.812;11.762;2023-03-01T16:20:24;6.30;90.70
22161;DHT22;49035;48.812;11.762;2023-03-01T16:22:51;6.30;91.00
22161;DHT22;49035;48.812;11.762;2023-03-01T16:25:18;6.20;90.90
22161;DHT22;49035;48.812;11.762;2023-03-01T16:27:45;6.10;91.20
22161;DHT22;49035;48.812;11.762;2023-03-01T16:30:12;6.00;91.40
22161;DHT22;49035;48.812;11.762;2023-03-01T16:32:42;5.90;91.90
22161;DHT22;49035;48.812;11.762;2023-03-01T16:35:09;5.80;92.10
22161;DHT22;49035;48.812;11.762;2023-03-01T16:37:36;5.70;92.20
22161;DHT22;49035;48.812;11.762;2023-03-01T16:40:03;5.70;92.30
22161;DHT22;49035;48.812;11.762;2023-03-01T16:42:33;5.60;92.70
22161;DHT22;49035;48.812;11.762;2023-03-01T16:44:59;5.40;92.90
22161;DHT22;49035;48.812;11.762;2023-03-01T16:47:25;5.30;93.40
22161;DHT22;49035;48.812;11.762;2023-03-01T16:49:52;5.20;93.70
22161;DHT22;49035;48.812;11.762;2023-03-01T16:52:18;5.10;93.70
22161;DHT22;49035;48.812;11.762;2023-03-01T16:54:44;5.00;94.10
22161;DHT22;49035;48.812;11.762;2023-03-01T16:57:09;4.80;94.50
22161;DHT22;49035;48.812;11.762;2023-03-01T16:59:35;4.80;94.60
22161;DHT22;49035;48.812;11.762;2023-03-01T17:02:01;4.70;95.10
22161;DHT22;49035;48.812;11.762;2023-03-01T17:04:27;4.60;95.40
22161;DHT22;49035;48.812;11.762;2023-03-01T17:06:52;4.50;95.60
22161;DHT22;49035;48.812;11.762;2023-03-01T17:09:18;4.40;96.10
22161;DHT22;49035;48.812;11.762;2023-03-01T17:11:47;4.30;96.40
22161;DHT22;49035;48.812;11.762;2023-03-01T17:14:13;4.20;96.80
22161;DHT22;49035;48.812;11.762;2023-03-01T17:16:40;4.20;97.30
22161;DHT22;49035;48.812;11.762;2023-03-01T17:19:06;4.00;97.70
22161;DHT22;49035;48.812;11.762;2023-03-01T17:21:32;4.00;98.40
22161;DHT22;49035;48.812;11.762;2023-03-01T17:23:58;3.90;98.60
22161;DHT22;49035;48.812;11.762;2023-03-01T17:26:23;3.90;99.00
22161;DHT22;49035;48.812;11.762;2023-03-01T17:28:49;3.80;99.20
22161;DHT22;49035;48.812;11.762;2023-03-01T17:31:17;3.80;99.60
22161;DHT22;49035;48.812;11.762;2023-03-01T17:33:43;3.60;99.90
22161;DHT22;49035;48.812;11.762;2023-03-01T17:36:09;3.50;99.90
22161;DHT22;49035;48.812;11.762;2023-03-01T17:38:34;3.30;99.90
22161;DHT22;49035;48.812;11.762;2023-03-01T17:41:02;3.40;99.90
22161;DHT22;49035;48.812;11.762;2023-03-01T17:43:28;3.30;99.90
22161;DHT22;49035;48.812;11.762;2023-03-01T17:45:54;3.30;99.90